Time;durP1;ratioP1;P1;durP2;ratioP2;P2;SDS_P1;SDS_P2;PMS_P1;PMS_P2;Temp;Humidity;BMP_temperature;BMP_pressure;BME280_temperature;BME280_humidity;BME280_pressure;Samples;Min_cycle;Max_cycle;Signal;HPM_P1;HPM_P2
2023/01/11 00:02:16;;;;;;;5.32;1.90;;;;;;;4.89;100.00;99742.38;6275148;28;20103;-81
2023/01/11 00:05:17;;;;;;;1.55;1.45;;;;;;;4.83;100.00;99753.81;6273711;28;20081;-88
2023/01/11 00:08:18;;;;;;;3.50;2.30;;;;;;;4.75;100.00;99750.72;6273653;28;20120;-81
2023/01/11 00:11:18;;;;;;;1.70;1.08;;;;;;;4.93;100.00;99751.69;6273588;28;20127;-86
2023/01/11 00:14:19;;;;;;;3.85;2.38;;;;;;;4.90;100.00;99773.34;6274863;28;20041;-82
2023/01/11 00:17:20;;;;;;;4.35;2.00;;;;;;;5.00;100.00;99768.59;6273062;28;20045;-81
2023/01/11 00:20:23;;;;;;;1.55;1.42;;;;;;;4.95;100.00;99778.31;6273530;28;20123;-88
2023/01/11 00:23:24;;;;;;;2.45;1.55;;;;;;;4.99;100.00;99770.38;6256271;28;20072;-88
2023/01/11 00:26:25;;;;;;;6.97;3.00;;;;;;;4.96;100.00;99780.84;6273799;28;20063;-88
2023/01/11 00:29:28;;;;;;;1.83;1.33;;;;;;;5.11;100.00;99788.88;6272748;28;20037;-87
2023/01/11 00:32:29;;;;;;;1.75;1.30;;;;;;;5.02;100.00;99793.53;6273881;28;20047;-82
2023/01/11 00:35:31;;;;;;;2.92;1.67;;;;;;;5.02;100.00;99797.81;6273036;28;20037;-86
2023/01/11 00:38:45;;;;;;;1.55;1.17;;;;;;;4.95;100.00;99794.66;6272823;28;20049;-82
2023/01/11 00:48:25;;;;;;;1.25;1.08;;;;;;;5.03;100.00;99810.69;6273885;28;20037;-81
2023/01/11 00:51:26;;;;;;;5.25;2.45;;;;;;;5.13;100.00;99812.91;6273849;28;20037;-82
2023/01/11 00:54:27;;;;;;;5.60;2.40;;;;;;;5.21;100.00;99824.59;6272637;28;20455;-87
2023/01/11 00:57:28;;;;;;;3.80;2.20;;;;;;;5.18;100.00;99818.72;6272299;28;20401;-81
2023/01/11 01:00:31;;;;;;;2.08;1.38;;;;;;;5.05;100.00;99824.41;6272595;28;20037;-86
2023/01/11 01:03:33;;;;;;;3.15;2.47;;;;;;;5.14;100.00;99822.34;6272327;28;20060;-82
2023/01/11 01:06:34;;;;;;;5.07;2.70;;;;;;;5.01;100.00;99807.34;6272354;28;20072;-82
2023/01/11 01:09:35;;;;;;;3.88;2.25;;;;;;;5.01;100.00;99793.56;6272152;28;20037;-86
2023/01/11 01:15:57;;;;;;;2.35;1.65;;;;;;;5.09;100.00;99791.50;6273023;28;20098;-86
2023/01/11 01:18:58;;;;;;;4.70;2.13;;;;;;;5.14;100.00;99802.47;6272724;28;20053;-87
2023/01/11 01:22:02;;;;;;;6.22;1.83;;;;;;;5.10;100.00;99788.00;6272461;28;20045;-86
2023/01/11 01:25:03;;;;;;;5.22;3.45;;;;;;;5.08;100.00;99770.88;6271573;28;20058;-87
2023/01/11 01:28:06;;;;;;;4.28;2.10;;;;;;;4.92;100.00;99761.19;6255022;28;20122;-82
2023/01/11 01:31:07;;;;;;;3.95;2.17;;;;;;;4.91;100.00;99762.09;6271704;28;20045;-82
2023/01/11 01:34:09;;;;;;;2.17;1.58;;;;;;;4.84;100.00;99776.19;6271780;28;20052;-87
2023/01/11 01:37:10;;;;;;;;;;;;;;;4.90;100.00;99799.22;6271942;28;20090;-87
2023/01/11 01:40:11;;;;;;;1.92;1.48;;;;;;;4.85;100.00;99791.63;6271696;28;19925;-86
2023/01/11 01:43:16;;;;;;;3.63;2.50;;;;;;;4.83;100.00;99779.66;6272518;28;20600;-87
2023/01/11 01:46:18;;;;;;;3.63;2.63;;;;;;;4.75;100.00;99787.72;6254642;28;20110;-86
2023/01/11 01:49:19;;;;;;;2.63;1.55;;;;;;;4.84;100.00;99795.13;6271562;28;20041;-86
2023/01/11 01:52:27;;;;;;;4.15;2.00;;;;;;;4.81;100.00;99781.47;6271375;28;20409;-86
2023/01/11 01:55:33;;;;;;;3.97;2.80;;;;;;;4.88;100.00;99788.09;6271285;28;20071;-86
2023/01/11 01:58:39;;;;;;;4.65;2.47;;;;;;;4.80;100.00;99792.72;6255123;28;20045;-86
2023/01/11 02:01:46;;;;;;;2.47;1.90;;;;;;;4.76;100.00;99762.75;6272663;28;20044;-87
2023/01/11 02:04:48;;;;;;;3.55;2.20;;;;;;;4.81;100.00;99764.22;6271270;28;20061;-81
2023/01/11 02:07:50;;;;;;;2.88;1.88;;;;;;;4.87;100.00;99781.22;6271799;28;20037;-81
2023/01/11 02:10:54;;;;;;;4.15;1.85;;;;;;;4.82;100.00;99789.16;6272242;28;20049;-86
2023/01/11 02:14:03;;;;;;;3.78;1.60;;;;;;;4.92;100.00;99788.78;6271099;28;20090;-82
2023/01/11 02:17:04;;;;;;;3.10;1.85;;;;;;;4.84;100.00;99792.53;6271450;28;20489;-87
2023/01/11 02:20:05;;;;;;;4.10;1.80;;;;;;;4.91;100.00;99800.88;6253650;28;20053;-82
2023/01/11 02:23:57;;;;;;;4.85;1.90;;;;;;;4.93;100.00;99799.06;6271030;28;20041;-82
2023/01/11 02:27:21;;;;;;;5.72;1.55;;;;;;;4.99;100.00;99800.56;6238165;28;20057;-82
2023/01/11 02:30:22;;;;;;;4.95;2.25;;;;;;;4.97;100.00;99808.38;6263225;28;20060;-81
2023/01/11 02:33:46;;;;;;;3.70;1.88;;;;;;;5.00;100.00;99810.84;6270926;28;20040;-86
2023/01/11 02:36:55;;;;;;;2.42;1.73;;;;;;;5.08;100.00;99832.94;6271950;28;20136;-87
2023/01/11 02:40:07;;;;;;;2.40;1.50;;;;;;;5.11;100.00;99835.41;6270645;28;20060;-82
2023/01/11 02:46:50;;;;;;;;;;;;;;;5.03;100.00;99846.06;6272324;28;20060;-81
2023/01/11 02:50:20;;;;;;;1.73;1.45;;;;;;;5.15;100.00;99840.38;6270543;28;20295;-82
2023/01/11 02:53:28;;;;;;;3.40;1.45;;;;;;;5.15;100.00;99848.16;6262895;28;20080;-86
2023/01/11 02:56:36;;;;;;;;;;;;;;;5.17;100.00;99833.41;6275749;28;20041;-87
2023/01/11 02:59:39;;;;;;;2.88;1.83;;;;;;;5.10;100.00;99825.97;6275336;28;19921;-82
2023/01/11 03:02:40;;;;;;;5.53;2.60;;;;;;;5.20;100.00;99833.25;6276422;28;20044;-83
2023/01/11 03:05:53;;;;;;;1.17;0.93;;;;;;;5.10;100.00;99819.03;6276319;28;20044;-82
2023/01/11 03:09:38;;;;;;;3.13;1.67;;;;;;;5.13;100.00;99823.25;6275024;28;20080;-84
2023/01/11 03:12:53;;;;;;;3.35;1.75;;;;;;;5.27;100.00;99830.41;6225934;28;20059;-81
2023/01/11 03:15:58;;;;;;;6.95;2.22;;;;;;;5.20;100.00;99832.44;6276067;28;20060;-81
2023/01/11 03:19:18;;;;;;;2.58;1.77;;;;;;;5.21;100.00;99837.53;6274661;28;20060;-82
2023/01/11 03:22:22;;;;;;;6.20;2.28;;;;;;;5.22;100.00;99848.72;6274762;28;20122;-82
2023/01/11 03:25:49;;;;;;;2.08;1.67;;;;;;;5.24;100.00;99826.22;6274732;28;20060;-82
2023/01/11 03:29:18;;;;;;;3.08;2.03;;;;;;;5.17;100.00;99830.81;6274632;28;20114;-86
2023/01/11 03:32:47;;;;;;;4.60;1.73;;;;;;;5.21;100.00;99834.97;6275388;28;20045;-82
2023/01/11 03:36:04;;;;;;;3.28;2.35;;;;;;;5.22;100.00;99828.88;6275497;28;20116;-82
2023/01/11 03:39:23;;;;;;;5.53;2.83;;;;;;;5.22;100.00;99843.56;6274271;28;20121;-82
2023/01/11 03:42:26;;;;;;;2.13;1.50;;;;;;;5.14;100.00;99835.28;6257663;28;20115;-82
2023/01/11 03:45:31;;;;;;;3.60;2.25;;;;;;;5.21;100.00;99836.72;6274250;28;20067;-85
2023/01/11 03:48:41;;;;;;;4.90;1.88;;;;;;;5.22;100.00;99854.72;6274066;28;20492;-82
2023/01/11 03:51:44;;;;;;;2.30;2.10;;;;;;;5.15;100.00;99855.06;6274066;28;20045;-86
2023/01/11 03:54:49;;;;;;;4.90;2.50;;;;;;;5.21;100.00;99868.59;6275082;28;20049;-82
2023/01/11 03:57:52;;;;;;;3.53;2.70;;;;;;;5.27;100.00;99874.38;6273771;28;20037;-82
2023/01/11 04:00:57;;;;;;;2.85;2.05;;;;;;;5.32;100.00;99878.47;6273377;28;20045;-86
2023/01/11 04:03:58;;;;;;;4.22;2.35;;;;;;;5.28;100.00;99857.97;6273731;28;20068;-85
2023/01/11 04:06:59;;;;;;;5.82;2.60;;;;;;;5.33;100.00;99861.19;6273724;28;20041;-82
2023/01/11 04:10:00;;;;;;;3.53;2.38;;;;;;;5.33;100.00;99882.72;6273487;28;20120;-82
2023/01/11 04:13:00;;;;;;;2.03;1.40;;;;;;;5.31;100.00;99865.59;6272867;28;20040;-82
2023/01/11 04:16:01;;;;;;;5.13;2.20;;;;;;;5.35;100.00;99872.31;6273045;28;20049;-82
2023/01/11 04:19:02;;;;;;;2.75;1.85;;;;;;;5.30;100.00;99858.75;6273270;28;20053;-82
2023/01/11 04:22:03;;;;;;;1.52;1.35;;;;;;;5.44;100.00;99875.38;6274625;28;20067;-83
2023/01/11 04:25:04;;;;;;;2.83;1.92;;;;;;;5.39;100.00;99869.53;6273047;28;20067;-82
2023/01/11 04:28:05;;;;;;;1.52;1.42;;;;;;;5.46;100.00;99875.31;6273087;28;20052;-86
2023/01/11 04:31:08;;;;;;;4.85;3.20;;;;;;;5.42;100.00;99858.25;6274335;28;20033;-85
2023/01/11 04:34:11;;;;;;;3.92;1.95;;;;;;;5.48;100.00;99875.22;6273041;28;20400;-82
2023/01/11 04:37:11;;;;;;;4.95;1.88;;;;;;;5.39;100.00;99859.19;6273026;28;20163;-86
2023/01/11 04:40:12;;;;;;;8.75;2.10;;;;;;;5.51;100.00;99881.13;6272869;28;20485;-87
2023/01/11 04:43:13;;;;;;;4.57;1.85;;;;;;;5.45;100.00;99877.03;6272933;28;20399;-86
2023/01/11 04:46:14;;;;;;;4.70;2.72;;;;;;;5.53;100.00;99876.72;6272760;28;20041;-81
2023/01/11 04:49:17;;;;;;;4.57;2.17;;;;;;;5.39;100.00;99872.13;6273888;28;20522;-85
2023/01/11 04:52:19;;;;;;;3.80;1.85;;;;;;;5.45;100.00;99876.19;6273793;28;20040;-82
2023/01/11 04:55:20;;;;;;;6.82;2.95;;;;;;;5.48;100.00;99878.69;6273654;28;20041;-82
2023/01/11 04:58:21;;;;;;;7.40;3.25;;;;;;;5.45;100.00;99882.22;6273624;28;20091;-87
2023/01/11 05:01:22;;;;;;;4.30;2.70;;;;;;;5.49;100.00;99884.69;6272374;28;20045;-86
2023/01/11 05:04:22;;;;;;;7.22;2.60;;;;;;;5.49;100.00;99897.63;6272425;28;20070;-86
2023/01/11 05:07:23;;;;;;;5.18;2.55;;;;;;;5.53;100.00;99894.00;6272220;28;20132;-82
2023/01/11 05:10:24;;;;;;;6.78;2.58;;;;;;;5.47;100.00;99897.69;6271750;28;20041;-82
2023/01/11 05:13:40;;;;;;;3.95;2.65;;;;;;;5.47;100.00;99899.44;6273325;28;20033;-82
2023/01/11 05:16:43;;;;;;;14.48;2.97;;;;;;;5.44;100.00;99887.47;6271545;28;20049;-82
2023/01/11 05:19:46;;;;;;;5.03;2.22;;;;;;;5.48;100.00;99881.25;6271924;28;20112;-87
2023/01/11 05:22:48;;;;;;;2.92;1.67;;;;;;;5.37;100.00;99896.38;6273112;28;20120;-86
2023/01/11 05:25:48;;;;;;;1.92;1.40;;;;;;;5.44;100.00;99903.00;6272965;28;20043;-86
2023/01/11 05:28:51;;;;;;;5.75;2.17;;;;;;;5.45;100.00;99915.84;6271623;28;20059;-82
2023/01/11 05:31:51;;;;;;;2.88;2.08;;;;;;;5.38;100.00;99918.78;6272546;28;20037;-87
2023/01/11 05:34:52;;;;;;;3.78;2.15;;;;;;;5.36;100.00;99925.78;6271156;28;20514;-87
2023/01/11 05:37:55;;;;;;;3.50;2.42;;;;;;;5.36;100.00;99929.19;6252893;28;20364;-81
2023/01/11 05:40:58;;;;;;;3.55;1.77;;;;;;;5.48;100.00;99922.66;6270796;28;20044;-81
2023/01/11 05:47:18;;;;;;;6.28;2.97;;;;;;;5.36;100.00;99955.06;6272044;28;19920;-81
2023/01/11 05:50:19;;;;;;;5.18;3.17;;;;;;;5.34;100.00;99943.09;6270695;28;20536;-81
2023/01/11 05:53:22;;;;;;;3.72;2.63;;;;;;;5.36;100.00;99962.00;6271894;28;20045;-82
2023/01/11 05:56:23;;;;;;;4.75;3.10;;;;;;;5.44;100.00;99967.69;6271847;28;20159;-81
2023/01/11 05:59:25;;;;;;;5.55;3.25;;;;;;;5.22;100.00;99958.19;6270606;28;20045;-86
2023/01/11 06:02:26;;;;;;;5.50;3.63;;;;;;;5.37;100.00;99963.66;6271786;28;20399;-87
2023/01/11 06:05:29;;;;;;;6.85;3.25;;;;;;;5.37;100.00;99956.72;6253921;28;20055;-86
2023/01/11 06:08:32;;;;;;;8.93;3.15;;;;;;;5.32;100.00;99960.44;6271628;28;20103;-86
2023/01/11 06:11:33;;;;;;;7.50;2.88;;;;;;;5.33;100.00;99970.69;6270328;28;20511;-81
2023/01/11 06:14:37;;;;;;;7.03;3.13;;;;;;;5.30;100.00;99978.59;6271434;28;20094;-88
2023/01/11 06:17:38;;;;;;;4.03;2.67;;;;;;;5.41;100.00;99973.81;6270027;28;20067;-87
2023/01/11 06:20:39;;;;;;;4.85;2.83;;;;;;;5.37;100.00;99972.25;6271453;28;20528;-87
2023/01/11 06:23:43;;;;;;;6.00;3.25;;;;;;;5.38;100.00;99973.13;6253794;28;20073;-88
2023/01/11 06:26:44;;;;;;;8.63;4.68;;;;;;;5.49;100.00;99978.69;6271557;28;20079;-88
2023/01/11 06:29:44;;;;;;;8.60;2.92;;;;;;;5.42;100.00;99993.63;6273429;28;20102;-88
2023/01/11 06:32:48;;;;;;;2.90;2.28;;;;;;;5.34;100.00;99987.09;6275228;28;20045;-88
2023/01/11 06:35:49;;;;;;;4.00;2.65;;;;;;;5.45;100.00;99979.72;6276315;28;20476;-88
2023/01/11 06:38:51;;;;;;;6.07;2.35;;;;;;;5.39;100.00;99974.78;6258277;28;20452;-87
2023/01/11 06:41:52;;;;;;;6.28;3.35;;;;;;;5.40;100.00;99979.06;6274904;28;20408;-88
2023/01/11 06:44:52;;;;;;;12.02;4.63;;;;;;;5.38;100.00;99988.66;6258398;28;20143;-88
2023/01/11 06:47:53;;;;;;;10.43;4.50;;;;;;;5.38;100.00;99991.22;6258141;28;20403;-88
2023/01/11 06:50:56;;;;;;;10.10;2.88;;;;;;;5.52;100.00;99990.66;6275874;28;20037;-88
2023/01/11 06:53:59;;;;;;;6.53;2.63;;;;;;;5.37;100.00;99994.72;6274696;28;20386;-88
2023/01/11 06:57:02;;;;;;;4.07;2.67;;;;;;;5.36;100.00;99996.47;6275756;28;20036;-88
2023/01/11 07:00:03;;;;;;;5.90;3.22;;;;;;;5.36;100.00;99999.06;6274447;28;20405;-87
2023/01/11 07:03:05;;;;;;;5.00;3.20;;;;;;;5.34;100.00;100007.78;6274737;28;20091;-88
2023/01/11 07:06:08;;;;;;;4.85;2.53;;;;;;;5.45;100.00;100016.78;6257934;28;20420;-88
2023/01/11 07:09:08;;;;;;;5.53;2.85;;;;;;;5.45;100.00;100006.44;6275440;28;20045;-88
2023/01/11 07:12:12;;;;;;;4.40;2.47;;;;;;;5.43;100.00;100016.00;6274278;28;20052;-87
2023/01/11 07:15:12;;;;;;;7.88;3.45;;;;;;;5.47;100.00;100015.88;6275404;28;20481;-88
2023/01/11 07:18:13;;;;;;;6.38;3.95;;;;;;;5.58;100.00;100024.91;6274188;28;20106;-88
2023/01/11 07:21:14;;;;;;;9.27;3.58;;;;;;;5.69;100.00;100034.81;6273615;28;20143;-81
2023/01/11 07:24:15;;;;;;;4.78;2.65;;;;;;;5.58;100.00;100026.63;6274033;28;20041;-87
2023/01/11 07:27:16;;;;;;;7.18;3.38;;;;;;;5.56;100.00;100026.72;6275104;28;20052;-88
2023/01/11 07:30:19;;;;;;;6.65;3.25;;;;;;;5.65;100.00;100026.31;6273916;28;20040;-88
2023/01/11 07:33:20;;;;;;;9.20;4.53;;;;;;;5.50;100.00;100015.75;6274959;28;20041;-88
2023/01/11 07:36:21;;;;;;;8.15;3.10;;;;;;;5.44;100.00;100014.28;6273658;28;20047;-80
2023/01/11 07:39:22;;;;;;;11.13;2.63;;;;;;;5.40;100.00;100017.88;6256529;28;20048;-88
2023/01/11 07:45:46;;;;;;;5.10;3.28;;;;;;;5.47;100.00;100023.66;6269391;28;20501;-86
2023/01/11 07:48:47;;;;;;;4.03;2.20;;;;;;;5.51;100.00;100038.16;6272897;28;20048;-80
2023/01/11 07:51:50;;;;;;;9.10;3.80;;;;;;;5.36;100.00;100029.28;6256532;28;20045;-81
2023/01/11 07:54:51;;;;;;;5.35;2.88;;;;;;;5.33;100.00;100019.03;6274456;28;20068;-87
2023/01/11 07:57:56;;;;;;;5.05;2.63;;;;;;;5.45;100.00;100041.81;6274331;28;20041;-80
2023/01/11 08:01:00;;;;;;;3.25;2.10;;;;;;;5.45;100.00;100034.91;6272781;28;20049;-80
2023/01/11 08:04:01;;;;;;;3.45;2.60;;;;;;;5.43;100.00;100047.06;6272966;28;20040;-88
2023/01/11 08:07:02;;;;;;;4.43;2.97;;;;;;;5.59;100.00;100049.88;6272848;28;20049;-88
2023/01/11 08:10:03;;;;;;;4.78;2.78;;;;;;;5.54;100.00;100040.59;6272783;28;20055;-87
2023/01/11 08:16:26;;;;;;;3.63;2.50;;;;;;;5.65;100.00;100059.97;6272450;28;20266;-88
2023/01/11 08:19:27;;;;;;;6.45;2.90;;;;;;;5.89;100.00;100049.53;6272573;28;20468;-87
2023/01/11 08:22:27;;;;;;;4.75;2.90;;;;;;;6.09;100.00;100053.06;6272496;28;20071;-88
2023/01/11 08:25:28;;;;;;;7.10;2.78;;;;;;;6.18;100.00;100053.50;6273590;28;20056;-87
2023/01/11 08:28:29;;;;;;;7.05;3.60;;;;;;;6.42;100.00;100055.94;6272371;28;20052;-80
2023/01/11 08:31:30;;;;;;;8.15;3.80;;;;;;;6.93;100.00;100054.53;6273458;28;20473;-88
2023/01/11 08:34:33;;;;;;;7.60;3.58;;;;;;;7.11;100.00;100052.00;6273446;28;20477;-80
2023/01/11 08:37:34;;;;;;;4.63;2.70;;;;;;;7.05;97.83;100055.72;6273333;28;20044;-87
2023/01/11 08:40:35;;;;;;;5.95;3.53;;;;;;;7.20;97.49;100057.56;6255335;28;20060;-81
2023/01/11 08:43:37;;;;;;;9.65;5.55;;;;;;;7.35;96.06;100063.81;6255447;28;20489;-88
2023/01/11 08:46:38;;;;;;;10.70;5.97;;;;;;;7.69;94.87;100075.16;6273191;28;20124;-88
2023/01/11 08:49:41;;;;;;;7.68;4.80;;;;;;;7.72;94.46;100072.44;6272013;28;20354;-88
2023/01/11 08:52:42;;;;;;;6.22;2.95;;;;;;;7.47;93.77;100072.75;6270908;28;20045;-87
2023/01/11 08:55:46;;;;;;;5.68;2.75;;;;;;;7.45;93.22;100069.41;6255193;28;20177;-87
2023/01/11 08:58:49;;;;;;;23.27;4.22;;;;;;;7.33;95.51;100064.78;6271506;28;20047;-87
2023/01/11 09:01:50;;;;;;;10.85;4.15;;;;;;;7.13;96.13;100061.38;6272746;28;20036;-88
2023/01/11 09:04:51;;;;;;;9.85;4.00;;;;;;;7.03;97.69;100068.75;6271521;28;20048;-87
2023/01/11 09:07:58;;;;;;;4.35;2.60;;;;;;;6.69;100.00;100068.59;6271401;28;20527;-80
2023/01/11 09:11:52;;;;;;;5.45;2.75;;;;;;;6.71;100.00;100067.59;6271096;28;20056;-87
2023/01/11 09:14:24;;;;;;;6.00;3.38;;;;;;;6.70;100.00;100073.72;6272469;28;20072;-80
2023/01/11 09:17:25;;;;;;;7.10;3.30;;;;;;;6.73;100.00;100083.94;6287416;28;20078;-88
2023/01/11 09:20:27;;;;;;;6.20;2.80;;;;;;;6.75;100.00;100078.69;6272532;28;20086;-87
2023/01/11 09:23:30;;;;;;;9.07;3.70;;;;;;;6.81;100.00;100068.88;6254509;28;20569;-87
2023/01/11 09:26:34;;;;;;;11.40;2.95;;;;;;;6.82;100.00;100080.13;6271087;28;20098;-87
2023/01/11 09:29:35;;;;;;;8.95;3.20;;;;;;;6.81;100.00;100086.19;6271061;28;20095;-79
2023/01/11 09:32:36;;;;;;;8.95;3.15;;;;;;;6.81;100.00;100070.63;6271983;28;20049;-80
2023/01/11 09:35:40;;;;;;;9.75;3.45;;;;;;;6.86;100.00;100079.06;6272020;28;20041;-80
2023/01/11 09:38:42;;;;;;;4.78;3.10;;;;;;;6.85;100.00;100067.00;6253945;28;20056;-80
2023/01/11 09:42:20;;;;;;;4.65;2.75;;;;;;;6.97;100.00;100068.19;6271779;28;20132;-80
2023/01/11 09:45:26;;;;;;;7.68;3.25;;;;;;;6.88;100.00;100059.09;6272267;28;20052;-87
2023/01/11 09:48:42;;;;;;;4.35;2.47;;;;;;;7.10;100.00;100068.47;6270446;28;20049;-87
2023/01/11 09:51:43;;;;;;;4.68;2.85;;;;;;;7.15;100.00;100072.53;6271729;28;20055;-80
2023/01/11 09:54:46;;;;;;;8.05;3.00;;;;;;;7.58;99.08;100072.28;6270592;28;20041;-80
2023/01/11 09:58:09;;;;;;;;;;;;;;;7.61;98.34;100072.94;6254167;28;20463;-80
2023/01/11 10:01:34;;;;;;;4.93;2.70;;;;;;;7.71;95.37;100057.75;6253806;28;19927;-88
2023/01/11 10:04:43;;;;;;;14.18;2.92;;;;;;;7.93;94.37;100057.53;6271364;28;20048;-87
2023/01/11 10:07:53;;;;;;;5.80;3.75;;;;;;;7.88;96.89;100062.94;6270403;28;20098;-87
2023/01/11 10:11:07;;;;;;;5.55;3.13;;;;;;;8.26;94.13;100061.97;6271325;28;20069;-87
2023/01/11 10:14:21;;;;;;;2.90;2.30;;;;;;;8.26;92.44;100061.97;6270354;28;20571;-87
2023/01/11 10:17:25;;;;;;;4.32;2.95;;;;;;;8.17;93.85;100063.25;6271175;28;20144;-80
2023/01/11 10:20:37;;;;;;;6.43;3.25;;;;;;;8.17;93.51;100057.22;6270125;28;20087;-80
2023/01/11 10:24:13;;;;;;;5.63;2.60;;;;;;;7.97;94.29;100043.47;6270062;28;20044;-79
2023/01/11 10:27:36;;;;;;;7.32;3.45;;;;;;;7.99;94.88;100054.63;6271370;28;20522;-87
2023/01/11 10:41:01;;;;;;;5.70;2.67;;;;;;;7.90;96.85;100067.25;6269760;28;20095;-87
2023/01/11 10:44:07;;;;;;;6.35;3.70;;;;;;;8.12;96.22;100072.22;6271011;28;20052;-87
2023/01/11 10:47:22;;;;;;;4.68;2.75;;;;;;;8.41;94.84;100068.97;6270974;28;20044;-87
2023/01/11 10:50:36;;;;;;;5.72;3.63;;;;;;;8.55;93.19;100070.03;6271199;28;20037;-87
2023/01/11 10:53:44;;;;;;;5.85;2.97;;;;;;;8.78;92.40;100074.03;6269651;28;20530;-80
2023/01/11 10:57:12;;;;;;;7.45;3.53;;;;;;;8.79;89.84;100071.34;6253035;28;20108;-80
2023/01/11 11:00:47;;;;;;;7.45;2.83;;;;;;;9.32;88.19;100063.28;6269606;28;20094;-87
2023/01/11 11:04:14;;;;;;;5.43;3.15;;;;;;;9.11;90.00;100053.13;6269565;28;20041;-88
2023/01/11 11:07:33;;;;;;;7.55;3.58;;;;;;;9.10;89.28;100064.50;6269658;28;20037;-80
2023/01/11 11:11:00;;;;;;;6.57;3.45;;;;;;;8.76;89.52;100074.09;6269640;28;20047;-80
2023/01/11 11:14:26;;;;;;;4.10;2.58;;;;;;;8.66;90.02;100072.91;6286429;28;20461;-80
2023/01/11 11:17:33;;;;;;;6.40;2.72;;;;;;;8.81;90.28;100069.50;6273801;28;20542;-87
2023/01/11 11:20:34;;;;;;;8.02;3.03;;;;;;;8.64;90.54;100075.56;6268943;28;20048;-80
2023/01/11 11:23:37;;;;;;;5.97;2.85;;;;;;;8.61;91.87;100080.13;6267827;28;20045;-87
2023/01/11 11:26:43;;;;;;;6.22;2.90;;;;;;;8.68;90.60;100071.91;6247221;28;20084;-87
2023/01/11 11:29:52;;;;;;;6.60;3.60;;;;;;;9.02;89.40;100072.72;6250701;28;20077;-87
2023/01/11 11:33:00;;;;;;;4.82;3.08;;;;;;;9.37;90.20;100069.94;6282501;28;20054;-87
2023/01/11 11:36:03;;;;;;;5.75;3.33;;;;;;;9.92;85.35;100063.31;6250253;28;20045;-87
2023/01/11 11:39:27;;;;;;;5.78;2.67;;;;;;;9.93;86.33;100061.59;6250213;28;20041;-87
2023/01/11 11:42:28;;;;;;;4.85;2.60;;;;;;;10.07;83.85;100053.78;6249301;28;20072;-87
2023/01/11 11:45:31;;;;;;;4.47;2.85;;;;;;;10.33;83.91;100060.09;6265514;28;20489;-87
2023/01/11 11:48:33;;;;;;;4.65;2.88;;;;;;;10.39;81.12;100057.09;6250091;28;20053;-79
2023/01/11 11:51:34;;;;;;;4.50;2.97;;;;;;;10.55;80.05;100066.63;6248562;28;20038;-80
2023/01/11 11:54:42;;;;;;;4.15;2.72;;;;;;;10.43;80.29;100061.22;6248457;28;20056;-87
2023/01/11 11:57:43;;;;;;;5.45;2.95;;;;;;;10.46;80.51;100065.44;6248753;28;20116;-79
2023/01/11 12:00:47;;;;;;;6.57;2.80;;;;;;;10.56;81.51;100057.84;6249877;28;20037;-87
2023/01/11 12:03:51;;;;;;;4.88;2.78;;;;;;;10.71;80.55;100069.13;6248233;28;20042;-87
2023/01/11 12:07:06;;;;;;;3.88;2.28;;;;;;;10.87;78.40;100062.88;6249727;28;20073;-87
2023/01/11 12:10:17;;;;;;;5.45;3.05;;;;;;;10.86;76.54;100074.25;6248434;28;20547;-87
2023/01/11 12:13:38;;;;;;;15.00;2.60;;;;;;;10.80;77.83;100066.78;6248258;28;20037;-87
2023/01/11 12:16:41;;;;;;;4.65;2.38;;;;;;;10.84;79.00;100060.44;6247843;28;20111;-86
2023/01/11 12:19:44;;;;;;;5.07;2.53;;;;;;;10.92;76.17;100073.03;6249140;28;20048;-86
2023/01/11 12:22:45;;;;;;;5.00;2.72;;;;;;;10.84;77.67;100075.28;6249166;28;20072;-87
2023/01/11 12:26:10;;;;;;;5.00;2.60;;;;;;;11.02;78.30;100065.47;6248964;28;20049;-87
2023/01/11 12:29:45;;;;;;;4.13;2.55;;;;;;;11.10;78.49;100073.66;6247629;28;20045;-87
2023/01/11 12:33:09;;;;;;;5.82;2.45;;;;;;;10.77;76.05;100068.75;6248591;28;20512;-87
2023/01/11 12:36:39;;;;;;;5.60;2.70;;;;;;;10.86;74.91;100068.19;6263927;28;20049;-86
2023/01/11 12:39:52;;;;;;;6.50;2.80;;;;;;;10.81;76.97;100071.09;6273184;28;20058;-86
2023/01/11 12:43:18;;;;;;;5.82;2.90;;;;;;;11.00;76.74;100062.97;6247314;28;20056;-86
2023/01/11 12:46:34;;;;;;;5.00;2.65;;;;;;;10.94;75.46;100070.34;6248501;28;20046;-79
2023/01/11 12:50:05;;;;;;;6.55;3.13;;;;;;;10.81;74.59;100070.25;6248412;28;20123;-79
2023/01/11 12:53:16;;;;;;;5.47;2.65;;;;;;;10.95;76.15;100075.44;6247468;28;20041;-86
2023/01/11 12:56:30;;;;;;;4.85;3.00;;;;;;;10.96;77.27;100087.56;6248213;28;20128;-79
2023/01/11 13:00:15;;;;;;;4.43;2.63;;;;;;;10.77;75.39;100087.00;6245675;28;20048;-79
2023/01/11 13:03:35;;;;;;;3.28;2.25;;;;;;;10.75;77.06;100079.31;6274516;28;20531;-79
2023/01/11 13:06:45;;;;;;;4.53;2.70;;;;;;;10.45;77.12;100068.94;6279813;28;20501;-79
2023/01/11 13:10:09;;;;;;;8.85;4.90;;;;;;;10.55;77.76;100074.47;6246652;28;20041;-86
2023/01/11 13:13:22;;;;;;;5.75;3.70;;;;;;;10.68;76.96;100060.56;6247500;28;20045;-86
2023/01/11 13:16:33;;;;;;;4.60;3.30;;;;;;;10.65;78.11;100065.97;6247636;28;20053;-86
2023/01/11 13:19:53;;;;;;;10.48;5.22;;;;;;;10.84;76.98;100070.91;6247568;28;20072;-86
2023/01/11 13:23:38;;;;;;;6.35;3.45;;;;;;;10.72;77.45;100065.59;6262957;28;20509;-79
2023/01/11 13:26:43;;;;;;;6.53;3.22;;;;;;;10.73;78.56;100069.88;6246959;28;20398;-86
2023/01/11 13:29:53;;;;;;;6.00;3.20;;;;;;;10.65;78.59;100063.38;6247315;28;20121;-79
2023/01/11 13:33:00;;;;;;;4.07;2.67;;;;;;;10.72;78.01;100070.81;6246251;28;20048;-86
2023/01/11 13:36:06;;;;;;;6.22;2.83;;;;;;;10.68;76.41;100083.22;6247217;28;20112;-79
2023/01/11 13:39:22;;;;;;;4.43;3.28;;;;;;;10.64;78.13;100082.53;6246722;28;20387;-86
2023/01/11 13:42:30;;;;;;;4.47;2.60;;;;;;;10.52;80.79;100090.28;6245721;28;20139;-86
2023/01/11 13:45:57;;;;;;;4.80;2.65;;;;;;;10.43;76.93;100091.69;6246988;28;20052;-86
2023/01/11 13:49:23;;;;;;;8.90;4.25;;;;;;;10.39;77.83;100090.19;6262360;28;20049;-79
2023/01/11 13:52:41;;;;;;;6.63;3.80;;;;;;;10.37;79.36;100103.31;6246851;28;20095;-86
2023/01/11 13:56:17;;;;;;;8.82;3.40;;;;;;;10.27;80.92;100102.16;6278884;28;20053;-79
2023/01/11 13:59:50;;;;;;;6.70;3.40;;;;;;;10.05;80.26;100105.19;6277057;28;20442;-86
2023/01/11 14:03:02;;;;;;;5.93;3.08;;;;;;;9.95;80.13;100110.09;6245391;28;20122;-86
2023/01/11 14:06:13;;;;;;;5.70;3.40;;;;;;;9.86;81.94;100116.66;6246743;28;20045;-86
2023/01/11 14:09:32;;;;;;;6.10;3.20;;;;;;;9.97;80.66;100123.88;6245516;28;20042;-86
2023/01/11 14:12:58;;;;;;;6.25;3.53;;;;;;;10.07;80.92;100127.63;6278668;28;20314;-86
2023/01/11 14:16:07;;;;;;;9.73;3.47;;;;;;;9.89;84.00;100119.09;6245285;28;20120;-85
2023/01/11 14:19:30;;;;;;;8.65;2.92;;;;;;;10.03;85.70;100138.31;6261807;28;20053;-86
2023/01/11 14:22:48;;;;;;;11.35;3.92;;;;;;;9.83;85.38;100129.03;6246568;28;20037;-86
2023/01/11 14:25:49;;;;;;;6.45;3.83;;;;;;;9.58;87.44;100124.34;6245437;28;20048;-86
2023/01/11 14:28:53;;;;;;;10.73;6.05;;;;;;;9.58;89.92;100114.78;6246575;28;20041;-86
2023/01/11 14:32:18;;;;;;;22.15;9.30;;;;;;;9.52;90.27;100112.50;6261753;28;20057;-86
2023/01/11 14:35:58;;;;;;;8.35;5.25;;;;;;;9.31;93.40;100111.06;6246349;28;20104;-86
2023/01/11 14:39:26;;;;;;;7.38;4.07;;;;;;;9.18;94.02;100122.19;6243263;28;20497;-86
2023/01/11 14:42:41;;;;;;;7.60;4.22;;;;;;;9.12;94.73;100130.31;6227421;28;20129;-85
2023/01/11 14:46:13;;;;;;;10.05;4.43;;;;;;;9.01;96.14;100130.03;6246238;28;20045;-86
2023/01/11 14:49:56;;;;;;;9.02;4.68;;;;;;;8.94;97.21;100128.69;6247010;28;20049;-85
2023/01/11 14:53:00;;;;;;;10.13;5.10;;;;;;;8.77;98.14;100129.56;6282961;28;20053;-85
2023/01/11 14:56:01;;;;;;;8.57;4.97;;;;;;;8.70;98.21;100128.22;6250933;28;20084;-85
2023/01/11 14:59:20;;;;;;;9.50;4.82;;;;;;;8.60;98.32;100128.69;6249704;28;20382;-85
2023/01/11 15:02:25;;;;;;;7.75;5.22;;;;;;;8.46;99.19;100134.59;6282722;28;20053;-85
2023/01/11 15:05:32;;;;;;;14.48;8.48;;;;;;;8.50;98.65;100134.44;6251040;28;20049;-79
2023/01/11 15:08:43;;;;;;;19.58;8.65;;;;;;;8.31;99.85;100140.53;6250605;28;20050;-79
2023/01/11 15:11:44;;;;;;;14.63;8.43;;;;;;;8.19;99.85;100136.78;6250470;28;20041;-80
2023/01/11 15:14:48;;;;;;;13.20;8.40;;;;;;;8.12;99.39;100139.78;6250451;28;20519;-79
2023/01/11 15:21:20;;;;;;;12.07;5.82;;;;;;;7.85;100.00;100135.84;6250327;28;20068;-79